sensor_id;sensor_type;location;lat;lon;timestamp;P1;durP1;ratioP1;P2;durP2;ratioP2
57309;SDS011;43153;50.984;18.204;2023-05-10T00:02:17;10.70;;;3.80;;
57309;SDS011;43153;50.984;18.204;2023-05-10T00:04:46;10.20;;;3.30;;
57309;SDS011;43153;50.984;18.204;2023-05-10T00:07:20;12.90;;;4.00;;
57309;SDS011;43153;50.984;18.204;2023-05-10T00:09:54;11.30;;;3.80;;
57309;SDS011;43153;50.984;18.204;2023-05-10T00:12:22;9.50;;;3.70;;
57309;SDS011;43153;50.984;18.204;2023-05-10T00:14:48;14.10;;;3.60;;
57309;SDS011;43153;50.984;18.204;2023-05-10T00:17:18;11.20;;;3.60;;
57309;SDS011;43153;50.984;18.204;2023-05-10T00:19:48;9.60;;;4.20;;
57309;SDS011;43153;50.984;18.204;2023-05-10T00:22:17;9.90;;;3.90;;
57309;SDS011;43153;50.984;18.204;2023-05-10T00:24:45;9.00;;;3.60;;
57309;SDS011;43153;50.984;18.204;2023-05-10T00:27:12;17.70;;;3.70;;
57309;SDS011;43153;50.984;18.204;2023-05-10T00:29:39;10.60;;;3.90;;
57309;SDS011;43153;50.984;18.204;2023-05-10T00:32:06;8.10;;;3.20;;
57309;SDS011;43153;50.984;18.204;2023-05-10T00:34:35;9.50;;;4.00;;
57309;SDS011;43153;50.984;18.204;2023-05-10T00:37:07;9.10;;;3.00;;
57309;SDS011;43153;50.984;18.204;2023-05-10T00:39:39;9.20;;;3.80;;
57309;SDS011;43153;50.984;18.204;2023-05-10T00:42:05;8.70;;;3.50;;
57309;SDS011;43153;50.984;18.204;2023-05-10T00:44:31;14.10;;;3.90;;
57309;SDS011;43153;50.984;18.204;2023-05-10T00:47:04;11.30;;;3.70;;
57309;SDS011;43153;50.984;18.204;2023-05-10T00:49:33;13.70;;;3.90;;
57309;SDS011;43153;50.984;18.204;2023-05-10T00:52:05;10.20;;;4.30;;
57309;SDS011;43153;50.984;18.204;2023-05-10T00:54:35;15.30;;;3.60;;
57309;SDS011;43153;50.984;18.204;2023-05-10T00:57:03;10.90;;;4.00;;
57309;SDS011;43153;50.984;18.204;2023-05-10T00:59:29;10.90;;;4.20;;
57309;SDS011;43153;50.984;18.204;2023-05-10T01:02:00;11.00;;;3.90;;
57309;SDS011;43153;50.984;18.204;2023-05-10T01:04:28;10.20;;;3.90;;
57309;SDS011;43153;50.984;18.204;2023-05-10T01:06:55;9.80;;;3.80;;
57309;SDS011;43153;50.984;18.204;2023-05-10T01:09:29;10.90;;;4.30;;
57309;SDS011;43153;50.984;18.204;2023-05-10T01:12:05;9.60;;;3.40;;
57309;SDS011;43153;50.984;18.204;2023-05-10T01:14:32;10.00;;;4.20;;
57309;SDS011;43153;50.984;18.204;2023-05-10T01:17:04;11.10;;;4.30;;
57309;SDS011;43153;50.984;18.204;2023-05-10T01:19:40;11.40;;;4.10;;
57309;SDS011;43153;50.984;18.204;2023-05-10T01:25:18;12.70;;;3.60;;
57309;SDS011;43153;50.984;18.204;2023-05-10T01:38:55;9.40;;;3.50;;
57309;SDS011;43153;50.984;18.204;2023-05-10T01:47:33;10.60;;;3.20;;
57309;SDS011;43153;50.984;18.204;2023-05-10T01:50:15;11.90;;;3.60;;
57309;SDS011;43153;50.984;18.204;2023-05-10T01:52:58;10.50;;;3.70;;
57309;SDS011;43153;50.984;18.204;2023-05-10T01:55:30;11.10;;;3.50;;
57309;SDS011;43153;50.984;18.204;2023-05-10T01:58:05;11.10;;;3.40;;
57309;SDS011;43153;50.984;18.204;2023-05-10T02:00:43;8.30;;;2.90;;
57309;SDS011;43153;50.984;18.204;2023-05-10T02:03:13;10.00;;;3.10;;
57309;SDS011;43153;50.984;18.204;2023-05-10T02:05:42;9.10;;;3.30;;
57309;SDS011;43153;50.984;18.204;2023-05-10T02:08:10;11.10;;;3.50;;
57309;SDS011;43153;50.984;18.204;2023-05-10T02:10:36;13.40;;;5.00;;
57309;SDS011;43153;50.984;18.204;2023-05-10T02:13:03;12.20;;;3.80;;
57309;SDS011;43153;50.984;18.204;2023-05-10T02:15:32;9.40;;;2.80;;
57309;SDS011;43153;50.984;18.204;2023-05-10T02:18:02;7.90;;;3.10;;
57309;SDS011;43153;50.984;18.204;2023-05-10T02:20:35;10.70;;;3.40;;
57309;SDS011;43153;50.984;18.204;2023-05-10T03:03:40;11.20;;;3.60;;
57309;SDS011;43153;50.984;18.204;2023-05-10T03:06:07;11.50;;;3.80;;
57309;SDS011;43153;50.984;18.204;2023-05-10T03:08:34;9.90;;;3.50;;
57309;SDS011;43153;50.984;18.204;2023-05-10T03:16:41;10.00;;;3.90;;
57309;SDS011;43153;50.984;18.204;2023-05-10T03:19:46;11.50;;;3.60;;
57309;SDS011;43153;50.984;18.204;2023-05-10T03:22:21;11.60;;;4.40;;
57309;SDS011;43153;50.984;18.204;2023-05-10T03:24:55;10.50;;;3.50;;
57309;SDS011;43153;50.984;18.204;2023-05-10T03:27:25;13.90;;;3.80;;
57309;SDS011;43153;50.984;18.204;2023-05-10T03:29:52;11.30;;;3.00;;
57309;SDS011;43153;50.984;18.204;2023-05-10T03:32:25;10.60;;;4.00;;
57309;SDS011;43153;50.984;18.204;2023-05-10T03:34:54;11.10;;;3.20;;
57309;SDS011;43153;50.984;18.204;2023-05-10T03:37:25;10.40;;;3.00;;
57309;SDS011;43153;50.984;18.204;2023-05-10T03:40:18;11.10;;;3.80;;
57309;SDS011;43153;50.984;18.204;2023-05-10T03:42:49;13.50;;;3.60;;
57309;SDS011;43153;50.984;18.204;2023-05-10T03:45:22;11.20;;;3.70;;
57309;SDS011;43153;50.984;18.204;2023-05-10T03:47:50;8.80;;;3.20;;
57309;SDS011;43153;50.984;18.204;2023-05-10T03:50:19;12.80;;;3.80;;
57309;SDS011;43153;50.984;18.204;2023-05-10T03:52:49;8.60;;;3.10;;
57309;SDS011;43153;50.984;18.204;2023-05-10T03:55:17;8.50;;;2.80;;
57309;SDS011;43153;50.984;18.204;2023-05-10T03:57:43;13.20;;;3.60;;
57309;SDS011;43153;50.984;18.204;2023-05-10T04:00:11;11.90;;;3.70;;
57309;SDS011;43153;50.984;18.204;2023-05-10T04:02:37;12.30;;;3.90;;
57309;SDS011;43153;50.984;18.204;2023-05-10T04:05:06;8.80;;;2.90;;
57309;SDS011;43153;50.984;18.204;2023-05-10T04:07:37;9.30;;;3.10;;
57309;SDS011;43153;50.984;18.204;2023-05-10T04:10:32;9.60;;;3.10;;
57309;SDS011;43153;50.984;18.204;2023-05-10T04:13:11;10.50;;;3.90;;
57309;SDS011;43153;50.984;18.204;2023-05-10T04:16:07;8.00;;;3.20;;
57309;SDS011;43153;50.984;18.204;2023-05-10T04:18:36;15.40;;;6.20;;
57309;SDS011;43153;50.984;18.204;2023-05-10T04:21:02;11.60;;;4.70;;
57309;SDS011;43153;50.984;18.204;2023-05-10T04:23:43;11.60;;;5.00;;
57309;SDS011;43153;50.984;18.204;2023-05-10T04:26:13;18.20;;;6.50;;
57309;SDS011;43153;50.984;18.204;2023-05-10T04:28:39;11.80;;;4.30;;
57309;SDS011;43153;50.984;18.204;2023-05-10T04:31:07;12.00;;;3.90;;
57309;SDS011;43153;50.984;18.204;2023-05-10T04:33:37;12.80;;;4.30;;
57309;SDS011;43153;50.984;18.204;2023-05-10T04:36:04;10.20;;;3.10;;
57309;SDS011;43153;50.984;18.204;2023-05-10T04:38:35;9.80;;;3.60;;
57309;SDS011;43153;50.984;18.204;2023-05-10T04:41:12;10.90;;;3.70;;
57309;SDS011;43153;50.984;18.204;2023-05-10T04:43:46;9.90;;;3.00;;
57309;SDS011;43153;50.984;18.204;2023-05-10T04:46:15;8.50;;;3.00;;
57309;SDS011;43153;50.984;18.204;2023-05-10T04:48:41;9.60;;;2.60;;
57309;SDS011;43153;50.984;18.204;2023-05-10T04:51:11;8.60;;;2.90;;
57309;SDS011;43153;50.984;18.204;2023-05-10T04:53:40;9.00;;;3.10;;
57309;SDS011;43153;50.984;18.204;2023-05-10T04:56:08;9.00;;;3.80;;
57309;SDS011;43153;50.984;18.204;2023-05-10T04:58:36;7.90;;;2.60;;
57309;SDS011;43153;50.984;18.204;2023-05-10T05:01:13;9.40;;;3.80;;
57309;SDS011;43153;50.984;18.204;2023-05-10T05:03:45;11.90;;;4.70;;
57309;SDS011;43153;50.984;18.204;2023-05-10T05:06:13;10.30;;;4.10;;
57309;SDS011;43153;50.984;18.204;2023-05-10T05:08:43;9.60;;;3.30;;
57309;SDS011;43153;50.984;18.204;2023-05-10T05:11:09;9.70;;;3.40;;
57309;SDS011;43153;50.984;18.204;2023-05-10T05:13:37;13.10;;;3.00;;
57309;SDS011;43153;50.984;18.204;2023-05-10T05:16:06;11.00;;;3.00;;
57309;SDS011;43153;50.984;18.204;2023-05-10T05:18:33;10.10;;;3.20;;
57309;SDS011;43153;50.984;18.204;2023-05-10T05:20:58;10.50;;;3.20;;
57309;SDS011;43153;50.984;18.204;2023-05-10T05:23:26;8.40;;;2.90;;
57309;SDS011;43153;50.984;18.204;2023-05-10T05:25:56;9.50;;;3.30;;
57309;SDS011;43153;50.984;18.204;2023-05-10T05:28:27;8.20;;;2.60;;
57309;SDS011;43153;50.984;18.204;2023-05-10T05:31:05;9.60;;;2.80;;
57309;SDS011;43153;50.984;18.204;2023-05-10T05:33:33;8.30;;;2.70;;
57309;SDS011;43153;50.984;18.204;2023-05-10T05:36:01;9.10;;;3.00;;
57309;SDS011;43153;50.984;18.204;2023-05-10T05:38:28;9.00;;;2.20;;
57309;SDS011;43153;50.984;18.204;2023-05-10T05:40:54;7.00;;;2.50;;
57309;SDS011;43153;50.984;18.204;2023-05-10T05:43:29;11.50;;;3.40;;
57309;SDS011;43153;50.984;18.204;2023-05-10T05:45:58;6.80;;;2.40;;
57309;SDS011;43153;50.984;18.204;2023-05-10T05:48:24;5.90;;;2.20;;
57309;SDS011;43153;50.984;18.204;2023-05-10T05:50:55;7.20;;;3.40;;
57309;SDS011;43153;50.984;18.204;2023-05-10T05:53:24;9.60;;;2.30;;
57309;SDS011;43153;50.984;18.204;2023-05-10T05:55:51;7.20;;;2.40;;
57309;SDS011;43153;50.984;18.204;2023-05-10T05:58:18;7.30;;;2.50;;
57309;SDS011;43153;50.984;18.204;2023-05-10T06:00:44;7.10;;;2.00;;
57309;SDS011;43153;50.984;18.204;2023-05-10T06:03:10;6.80;;;2.50;;
57309;SDS011;43153;50.984;18.204;2023-05-10T06:05:38;10.90;;;2.40;;
57309;SDS011;43153;50.984;18.204;2023-05-10T06:08:05;6.20;;;2.30;;
57309;SDS011;43153;50.984;18.204;2023-05-10T06:10:31;7.20;;;2.30;;
57309;SDS011;43153;50.984;18.204;2023-05-10T06:12:57;7.80;;;2.40;;
57309;SDS011;43153;50.984;18.204;2023-05-10T06:15:22;7.40;;;2.10;;
57309;SDS011;43153;50.984;18.204;2023-05-10T06:17:53;7.50;;;2.50;;
57309;SDS011;43153;50.984;18.204;2023-05-10T06:20:19;6.30;;;1.90;;
57309;SDS011;43153;50.984;18.204;2023-05-10T06:22:47;9.40;;;2.60;;
57309;SDS011;43153;50.984;18.204;2023-05-10T06:25:14;6.10;;;2.30;;
57309;SDS011;43153;50.984;18.204;2023-05-10T06:27:40;7.40;;;2.00;;
57309;SDS011;43153;50.984;18.204;2023-05-10T06:30:08;5.70;;;2.10;;
57309;SDS011;43153;50.984;18.204;2023-05-10T06:32:34;6.40;;;2.00;;
57309;SDS011;43153;50.984;18.204;2023-05-10T06:35:02;7.70;;;2.60;;
57309;SDS011;43153;50.984;18.204;2023-05-10T06:37:29;7.80;;;2.10;;
57309;SDS011;43153;50.984;18.204;2023-05-10T06:39:55;9.00;;;1.60;;
57309;SDS011;43153;50.984;18.204;2023-05-10T06:42:22;8.20;;;2.00;;
57309;SDS011;43153;50.984;18.204;2023-05-10T06:44:49;5.30;;;1.80;;
57309;SDS011;43153;50.984;18.204;2023-05-10T06:47:17;6.10;;;1.90;;
57309;SDS011;43153;50.984;18.204;2023-05-10T06:49:44;23.30;;;5.20;;
57309;SDS011;43153;50.984;18.204;2023-05-10T06:52:14;8.40;;;2.00;;
57309;SDS011;43153;50.984;18.204;2023-05-10T06:54:43;7.80;;;2.10;;
57309;SDS011;43153;50.984;18.204;2023-05-10T06:57:09;7.40;;;2.00;;
57309;SDS011;43153;50.984;18.204;2023-05-10T06:59:39;10.10;;;2.10;;
57309;SDS011;43153;50.984;18.204;2023-05-10T07:02:08;6.20;;;2.20;;
57309;SDS011;43153;50.984;18.204;2023-05-10T07:04:33;6.80;;;2.00;;
57309;SDS011;43153;50.984;18.204;2023-05-10T07:07:03;7.10;;;2.20;;
57309;SDS011;43153;50.984;18.204;2023-05-10T07:09:34;9.10;;;1.90;;
57309;SDS011;43153;50.984;18.204;2023-05-10T07:12:03;7.80;;;2.30;;
57309;SDS011;43153;50.984;18.204;2023-05-10T07:14:31;5.20;;;1.80;;
57309;SDS011;43153;50.984;18.204;2023-05-10T07:17:00;4.60;;;1.70;;
57309;SDS011;43153;50.984;18.204;2023-05-10T07:19:32;5.00;;;1.80;;
57309;SDS011;43153;50.984;18.204;2023-05-10T07:21:58;7.70;;;1.80;;
57309;SDS011;43153;50.984;18.204;2023-05-10T07:24:28;7.10;;;1.50;;
57309;SDS011;43153;50.984;18.204;2023-05-10T07:26:58;5.10;;;1.70;;
57309;SDS011;43153;50.984;18.204;2023-05-10T07:29:27;3.50;;;1.80;;
57309;SDS011;43153;50.984;18.204;2023-05-10T07:31:55;6.20;;;1.90;;
57309;SDS011;43153;50.984;18.204;2023-05-10T07:34:25;6.20;;;2.00;;
57309;SDS011;43153;50.984;18.204;2023-05-10T07:36:53;7.60;;;2.20;;
57309;SDS011;43153;50.984;18.204;2023-05-10T07:39:20;7.20;;;2.40;;
57309;SDS011;43153;50.984;18.204;2023-05-10T07:41:46;6.60;;;1.80;;
57309;SDS011;43153;50.984;18.204;2023-05-10T07:44:14;5.10;;;1.80;;
57309;SDS011;43153;50.984;18.204;2023-05-10T07:46:41;7.10;;;1.80;;
57309;SDS011;43153;50.984;18.204;2023-05-10T07:49:13;4.80;;;1.70;;
57309;SDS011;43153;50.984;18.204;2023-05-10T07:51:39;4.00;;;1.30;;
57309;SDS011;43153;50.984;18.204;2023-05-10T07:54:07;5.00;;;1.70;;
57309;SDS011;43153;50.984;18.204;2023-05-10T07:56:34;7.90;;;2.00;;
57309;SDS011;43153;50.984;18.204;2023-05-10T07:59:00;5.60;;;1.50;;
57309;SDS011;43153;50.984;18.204;2023-05-10T08:01:33;5.90;;;1.50;;
57309;SDS011;43153;50.984;18.204;2023-05-10T08:04:00;4.90;;;1.70;;
57309;SDS011;43153;50.984;18.204;2023-05-10T08:06:26;6.40;;;2.20;;
57309;SDS011;43153;50.984;18.204;2023-05-10T08:08:56;6.10;;;1.60;;
57309;SDS011;43153;50.984;18.204;2023-05-10T08:11:23;4.50;;;1.40;;
57309;SDS011;43153;50.984;18.204;2023-05-10T08:13:49;5.90;;;1.30;;
57309;SDS011;43153;50.984;18.204;2023-05-10T08:16:16;6.40;;;2.00;;
57309;SDS011;43153;50.984;18.204;2023-05-10T08:18:43;4.40;;;1.60;;
57309;SDS011;43153;50.984;18.204;2023-05-10T08:21:12;5.30;;;1.90;;
57309;SDS011;43153;50.984;18.204;2023-05-10T08:23:41;5.30;;;1.80;;
57309;SDS011;43153;50.984;18.204;2023-05-10T08:26:13;8.70;;;1.90;;
57309;SDS011;43153;50.984;18.204;2023-05-10T08:28:41;5.60;;;1.60;;
57309;SDS011;43153;50.984;18.204;2023-05-10T08:31:08;3.90;;;1.40;;
57309;SDS011;43153;50.984;18.204;2023-05-10T08:33:33;5.50;;;1.60;;
57309;SDS011;43153;50.984;18.204;2023-05-10T08:36:05;7.00;;;1.80;;
57309;SDS011;43153;50.984;18.204;2023-05-10T08:38:32;3.60;;;1.30;;
57309;SDS011;43153;50.984;18.204;2023-05-10T08:40:58;3.80;;;1.40;;
57309;SDS011;43153;50.984;18.204;2023-05-10T08:43:26;6.00;;;1.10;;
57309;SDS011;43153;50.984;18.204;2023-05-10T08:45:54;7.40;;;1.60;;
57309;SDS011;43153;50.984;18.204;2023-05-10T08:48:22;2.80;;;1.10;;
57309;SDS011;43153;50.984;18.204;2023-05-10T08:50:53;3.20;;;1.00;;
57309;SDS011;43153;50.984;18.204;2023-05-10T09:33:44;6.10;;;1.50;;
57309;SDS011;43153;50.984;18.204;2023-05-10T09:36:14;6.80;;;1.90;;
57309;SDS011;43153;50.984;18.204;2023-05-10T09:38:51;7.90;;;1.70;;
57309;SDS011;43153;50.984;18.204;2023-05-10T09:41:23;5.70;;;1.60;;
57309;SDS011;43153;50.984;18.204;2023-05-10T09:43:58;4.50;;;1.20;;
57309;SDS011;43153;50.984;18.204;2023-05-10T09:46:26;7.20;;;1.30;;
57309;SDS011;43153;50.984;18.204;2023-05-10T09:48:56;5.40;;;1.60;;
57309;SDS011;43153;50.984;18.204;2023-05-10T09:51:25;4.40;;;1.70;;
57309;SDS011;43153;50.984;18.204;2023-05-10T09:54:14;12.90;;;1.90;;
57309;SDS011;43153;50.984;18.204;2023-05-10T09:56:41;6.00;;;1.80;;
57309;SDS011;43153;50.984;18.204;2023-05-10T09:59:13;8.00;;;1.40;;
57309;SDS011;43153;50.984;18.204;2023-05-10T10:01:39;5.40;;;1.50;;
57309;SDS011;43153;50.984;18.204;2023-05-10T10:04:06;6.30;;;1.80;;
57309;SDS011;43153;50.984;18.204;2023-05-10T10:06:38;5.60;;;1.60;;
57309;SDS011;43153;50.984;18.204;2023-05-10T10:09:08;5.80;;;1.30;;
57309;SDS011;43153;50.984;18.204;2023-05-10T10:11:37;4.70;;;1.70;;
57309;SDS011;43153;50.984;18.204;2023-05-10T10:14:04;5.00;;;1.50;;
57309;SDS011;43153;50.984;18.204;2023-05-10T10:16:31;2.90;;;1.40;;
57309;SDS011;43153;50.984;18.204;2023-05-10T10:18:59;2.70;;;1.30;;
57309;SDS011;43153;50.984;18.204;2023-05-10T10:21:28;3.20;;;1.80;;
57309;SDS011;43153;50.984;18.204;2023-05-10T10:23:55;5.90;;;1.60;;
57309;SDS011;43153;50.984;18.204;2023-05-10T10:26:22;3.10;;;1.40;;
57309;SDS011;43153;50.984;18.204;2023-05-10T10:34:38;4.40;;;1.50;;
57309;SDS011;43153;50.984;18.204;2023-05-10T10:37:07;4.30;;;1.40;;
57309;SDS011;43153;50.984;18.204;2023-05-10T10:39:35;6.80;;;1.60;;
57309;SDS011;43153;50.984;18.204;2023-05-10T10:42:04;7.90;;;1.70;;
57309;SDS011;43153;50.984;18.204;2023-05-10T10:44:35;4.30;;;1.30;;
57309;SDS011;43153;50.984;18.204;2023-05-10T10:52:28;3.20;;;1.30;;
57309;SDS011;43153;50.984;18.204;2023-05-10T10:57:27;6.20;;;1.60;;
57309;SDS011;43153;50.984;18.204;2023-05-10T11:07:56;3.30;;;1.20;;
57309;SDS011;43153;50.984;18.204;2023-05-10T11:10:23;6.90;;;1.30;;
57309;SDS011;43153;50.984;18.204;2023-05-10T11:13:11;3.20;;;1.10;;
57309;SDS011;43153;50.984;18.204;2023-05-10T11:15:39;5.20;;;1.20;;
57309;SDS011;43153;50.984;18.204;2023-05-10T11:18:23;3.60;;;1.30;;
57309;SDS011;43153;50.984;18.204;2023-05-10T11:20:54;4.10;;;1.60;;
57309;SDS011;43153;50.984;18.204;2023-05-10T11:23:32;3.70;;;1.70;;
57309;SDS011;43153;50.984;18.204;2023-05-10T11:26:00;3.80;;;1.70;;
57309;SDS011;43153;50.984;18.204;2023-05-10T11:28:26;4.30;;;1.20;;
57309;SDS011;43153;50.984;18.204;2023-05-10T11:30:54;4.00;;;1.30;;
57309;SDS011;43153;50.984;18.204;2023-05-10T11:33:23;5.10;;;1.10;;
57309;SDS011;43153;50.984;18.204;2023-05-10T11:35:52;4.30;;;1.10;;
57309;SDS011;43153;50.984;18.204;2023-05-10T11:38:22;4.10;;;1.10;;
57309;SDS011;43153;50.984;18.204;2023-05-10T11:40:50;4.70;;;1.30;;
57309;SDS011;43153;50.984;18.204;2023-05-10T11:43:19;5.60;;;1.50;;
57309;SDS011;43153;50.984;18.204;2023-05-10T11:45:49;6.50;;;1.90;;
57309;SDS011;43153;50.984;18.204;2023-05-10T11:48:16;4.40;;;1.50;;
57309;SDS011;43153;50.984;18.204;2023-05-10T11:53:16;6.00;;;1.30;;
57309;SDS011;43153;50.984;18.204;2023-05-10T11:55:49;6.20;;;1.80;;
57309;SDS011;43153;50.984;18.204;2023-05-10T11:58:17;6.90;;;1.60;;
57309;SDS011;43153;50.984;18.204;2023-05-10T12:00:44;6.10;;;1.20;;
57309;SDS011;43153;50.984;18.204;2023-05-10T12:03:11;5.70;;;1.60;;
57309;SDS011;43153;50.984;18.204;2023-05-10T12:05:39;5.50;;;1.20;;
57309;SDS011;43153;50.984;18.204;2023-05-10T12:08:14;3.60;;;1.20;;
57309;SDS011;43153;50.984;18.204;2023-05-10T12:10:41;5.00;;;1.40;;
57309;SDS011;43153;50.984;18.204;2023-05-10T12:13:12;7.80;;;1.30;;
57309;SDS011;43153;50.984;18.204;2023-05-10T12:15:41;4.00;;;1.30;;
57309;SDS011;43153;50.984;18.204;2023-05-10T12:18:11;3.50;;;1.50;;
57309;SDS011;43153;50.984;18.204;2023-05-10T12:20:41;6.80;;;1.60;;
57309;SDS011;43153;50.984;18.204;2023-05-10T12:23:10;6.90;;;1.50;;
57309;SDS011;43153;50.984;18.204;2023-05-10T12:25:39;2.80;;;1.10;;
57309;SDS011;43153;50.984;18.204;2023-05-10T12:28:08;5.00;;;1.60;;
57309;SDS011;43153;50.984;18.204;2023-05-10T12:30:36;6.10;;;1.60;;
57309;SDS011;43153;50.984;18.204;2023-05-10T12:33:11;5.00;;;1.30;;
57309;SDS011;43153;50.984;18.204;2023-05-10T12:35:50;7.70;;;1.20;;
57309;SDS011;43153;50.984;18.204;2023-05-10T12:38:28;4.00;;;1.50;;
57309;SDS011;43153;50.984;18.204;2023-05-10T12:41:02;5.90;;;1.40;;
57309;SDS011;43153;50.984;18.204;2023-05-10T12:43:30;8.30;;;1.80;;
57309;SDS011;43153;50.984;18.204;2023-05-10T12:46:03;3.90;;;1.10;;
57309;SDS011;43153;50.984;18.204;2023-05-10T12:48:35;2.70;;;0.90;;
57309;SDS011;43153;50.984;18.204;2023-05-10T12:51:10;3.50;;;1.00;;
57309;SDS011;43153;50.984;18.204;2023-05-10T12:54:06;3.90;;;1.00;;
57309;SDS011;43153;50.984;18.204;2023-05-10T12:56:34;6.20;;;1.40;;
57309;SDS011;43153;50.984;18.204;2023-05-10T12:59:02;4.60;;;1.00;;
57309;SDS011;43153;50.984;18.204;2023-05-10T13:01:33;3.00;;;0.80;;
57309;SDS011;43153;50.984;18.204;2023-05-10T13:04:06;5.00;;;1.50;;
57309;SDS011;43153;50.984;18.204;2023-05-10T13:06:43;6.90;;;1.40;;
57309;SDS011;43153;50.984;18.204;2023-05-10T13:09:26;5.30;;;1.70;;
57309;SDS011;43153;50.984;18.204;2023-05-10T13:12:04;7.70;;;1.10;;
57309;SDS011;43153;50.984;18.204;2023-05-10T13:14:39;6.60;;;1.20;;
57309;SDS011;43153;50.984;18.204;2023-05-10T13:17:29;5.60;;;1.40;;
57309;SDS011;43153;50.984;18.204;2023-05-10T13:19:57;3.00;;;1.30;;
57309;SDS011;43153;50.984;18.204;2023-05-10T13:22:30;6.80;;;1.40;;
57309;SDS011;43153;50.984;18.204;2023-05-10T13:25:42;3.40;;;1.20;;
57309;SDS011;43153;50.984;18.204;2023-05-10T13:28:09;5.50;;;1.60;;
57309;SDS011;43153;50.984;18.204;2023-05-10T13:30:40;5.10;;;1.40;;
57309;SDS011;43153;50.984;18.204;2023-05-10T13:33:14;4.70;;;1.30;;
57309;SDS011;43153;50.984;18.204;2023-05-10T13:35:49;5.20;;;1.70;;
57309;SDS011;43153;50.984;18.204;2023-05-10T13:38:21;6.90;;;1.30;;
57309;SDS011;43153;50.984;18.204;2023-05-10T13:40:50;4.20;;;1.70;;
57309;SDS011;43153;50.984;18.204;2023-05-10T13:43:19;6.20;;;1.50;;
57309;SDS011;43153;50.984;18.204;2023-05-10T13:45:46;6.90;;;1.40;;
57309;SDS011;43153;50.984;18.204;2023-05-10T13:48:13;5.70;;;1.50;;
57309;SDS011;43153;50.984;18.204;2023-05-10T13:50:38;9.00;;;1.70;;
57309;SDS011;43153;50.984;18.204;2023-05-10T13:53:04;3.50;;;1.50;;
57309;SDS011;43153;50.984;18.204;2023-05-10T13:55:33;3.70;;;1.30;;
57309;SDS011;43153;50.984;18.204;2023-05-10T13:58:01;7.20;;;1.40;;
57309;SDS011;43153;50.984;18.204;2023-05-10T14:00:28;4.60;;;1.50;;
57309;SDS011;43153;50.984;18.204;2023-05-10T14:02:55;4.50;;;1.60;;
57309;SDS011;43153;50.984;18.204;2023-05-10T14:05:22;4.20;;;1.30;;
57309;SDS011;43153;50.984;18.204;2023-05-10T14:08:29;3.80;;;0.90;;
57309;SDS011;43153;50.984;18.204;2023-05-10T14:10:57;4.20;;;1.60;;
57309;SDS011;43153;50.984;18.204;2023-05-10T14:13:26;4.30;;;1.50;;
57309;SDS011;43153;50.984;18.204;2023-05-10T14:15:54;7.40;;;1.00;;
57309;SDS011;43153;50.984;18.204;2023-05-10T14:18:20;8.80;;;1.70;;
57309;SDS011;43153;50.984;18.204;2023-05-10T14:20:49;6.50;;;1.30;;
57309;SDS011;43153;50.984;18.204;2023-05-10T14:23:21;2.60;;;1.30;;
57309;SDS011;43153;50.984;18.204;2023-05-10T14:25:57;4.80;;;1.10;;
57309;SDS011;43153;50.984;18.204;2023-05-10T14:30:56;5.30;;;1.50;;
57309;SDS011;43153;50.984;18.204;2023-05-10T14:33:29;6.90;;;1.80;;
57309;SDS011;43153;50.984;18.204;2023-05-10T14:35:54;4.30;;;1.20;;
57309;SDS011;43153;50.984;18.204;2023-05-10T14:38:23;4.20;;;1.40;;
57309;SDS011;43153;50.984;18.204;2023-05-10T14:40:55;4.70;;;1.30;;
57309;SDS011;43153;50.984;18.204;2023-05-10T14:43:31;3.30;;;1.10;;
57309;SDS011;43153;50.984;18.204;2023-05-10T14:46:00;3.60;;;1.20;;
57309;SDS011;43153;50.984;18.204;2023-05-10T14:48:29;4.10;;;1.30;;
57309;SDS011;43153;50.984;18.204;2023-05-10T14:50:59;4.90;;;1.40;;
57309;SDS011;43153;50.984;18.204;2023-05-10T14:53:30;3.50;;;1.30;;
57309;SDS011;43153;50.984;18.204;2023-05-10T14:56:09;4.20;;;1.50;;
57309;SDS011;43153;50.984;18.204;2023-05-10T14:58:36;4.40;;;1.40;;
57309;SDS011;43153;50.984;18.204;2023-05-10T15:03:37;4.10;;;1.40;;
57309;SDS011;43153;50.984;18.204;2023-05-10T15:06:03;8.40;;;1.50;;
57309;SDS011;43153;50.984;18.204;2023-05-10T15:08:37;5.50;;;1.20;;
57309;SDS011;43153;50.984;18.204;2023-05-10T15:11:09;22.60;;;2.10;;
57309;SDS011;43153;50.984;18.204;2023-05-10T15:13:37;5.60;;;1.40;;
57309;SDS011;43153;50.984;18.204;2023-05-10T15:16:04;4.60;;;1.20;;
57309;SDS011;43153;50.984;18.204;2023-05-10T15:18:30;5.20;;;2.00;;
57309;SDS011;43153;50.984;18.204;2023-05-10T15:20:56;3.50;;;1.60;;
57309;SDS011;43153;50.984;18.204;2023-05-10T16:02:31;20.30;;;9.50;;
57309;SDS011;43153;50.984;18.204;2023-05-10T16:04:59;14.70;;;7.10;;
57309;SDS011;43153;50.984;18.204;2023-05-10T16:07:31;19.40;;;10.00;;
57309;SDS011;43153;50.984;18.204;2023-05-10T16:10:04;26.80;;;14.60;;
57309;SDS011;43153;50.984;18.204;2023-05-10T16:12:31;10.60;;;4.10;;
57309;SDS011;43153;50.984;18.204;2023-05-10T16:15:02;16.50;;;8.90;;
57309;SDS011;43153;50.984;18.204;2023-05-10T16:17:30;10.70;;;4.50;;
57309;SDS011;43153;50.984;18.204;2023-05-10T16:19:56;13.70;;;5.70;;
57309;SDS011;43153;50.984;18.204;2023-05-10T16:22:23;10.80;;;3.90;;
57309;SDS011;43153;50.984;18.204;2023-05-10T16:24:51;7.40;;;2.80;;
57309;SDS011;43153;50.984;18.204;2023-05-10T16:27:22;7.90;;;3.50;;
57309;SDS011;43153;50.984;18.204;2023-05-10T16:29:50;7.90;;;2.90;;
57309;SDS011;43153;50.984;18.204;2023-05-10T16:32:19;5.80;;;2.10;;
57309;SDS011;43153;50.984;18.204;2023-05-10T16:34:51;6.90;;;2.40;;
57309;SDS011;43153;50.984;18.204;2023-05-10T16:37:19;6.40;;;2.20;;
57309;SDS011;43153;50.984;18.204;2023-05-10T16:39:50;10.70;;;2.50;;
57309;SDS011;43153;50.984;18.204;2023-05-10T16:42:27;8.70;;;2.60;;
57309;SDS011;43153;50.984;18.204;2023-05-10T16:44:56;6.90;;;2.20;;
57309;SDS011;43153;50.984;18.204;2023-05-10T16:47:32;8.60;;;2.20;;
57309;SDS011;43153;50.984;18.204;2023-05-10T16:50:06;7.50;;;2.20;;
57309;SDS011;43153;50.984;18.204;2023-05-10T16:52:34;6.70;;;1.90;;
57309;SDS011;43153;50.984;18.204;2023-05-10T16:55:01;8.30;;;1.70;;
57309;SDS011;43153;50.984;18.204;2023-05-10T16:57:28;4.40;;;1.70;;
57309;SDS011;43153;50.984;18.204;2023-05-10T16:59:55;4.60;;;1.50;;
57309;SDS011;43153;50.984;18.204;2023-05-10T17:02:22;5.60;;;1.40;;
57309;SDS011;43153;50.984;18.204;2023-05-10T17:04:52;7.40;;;1.60;;
57309;SDS011;43153;50.984;18.204;2023-05-10T17:07:22;7.90;;;2.10;;
57309;SDS011;43153;50.984;18.204;2023-05-10T17:09:54;4.50;;;1.70;;
57309;SDS011;43153;50.984;18.204;2023-05-10T17:12:20;6.70;;;2.00;;
57309;SDS011;43153;50.984;18.204;2023-05-10T17:14:47;7.40;;;1.90;;
57309;SDS011;43153;50.984;18.204;2023-05-10T17:17:14;8.50;;;2.30;;
57309;SDS011;43153;50.984;18.204;2023-05-10T17:19:46;8.10;;;2.60;;
57309;SDS011;43153;50.984;18.204;2023-05-10T17:22:23;5.50;;;1.70;;
57309;SDS011;43153;50.984;18.204;2023-05-10T17:24:50;9.70;;;2.30;;
57309;SDS011;43153;50.984;18.204;2023-05-10T17:27:29;9.00;;;2.00;;
57309;SDS011;43153;50.984;18.204;2023-05-10T17:29:56;5.00;;;1.60;;
57309;SDS011;43153;50.984;18.204;2023-05-10T17:32:27;6.30;;;2.00;;
57309;SDS011;43153;50.984;18.204;2023-05-10T17:35:04;4.60;;;1.90;;
57309;SDS011;43153;50.984;18.204;2023-05-10T17:37:35;7.80;;;2.10;;
57309;SDS011;43153;50.984;18.204;2023-05-10T17:40:08;7.40;;;2.30;;
57309;SDS011;43153;50.984;18.204;2023-05-10T17:42:39;7.00;;;3.00;;
57309;SDS011;43153;50.984;18.204;2023-05-10T17:45:08;11.30;;;3.40;;